Aérodrome :







RETROUVEZ-NOUS SUR...

 
LOGIN :

S'inscrire | Disclaimer

   EN    FR    IT 

 









Légende :    VFR   VFR Marginal   IFR   IFR Intensif   IFR Très Intensif
Visi : 
Plafond : 
>= 8 km
>= 3000ft
5 à 8 km
1000 à 3000 ft
1500m à 5 km
500 à 1000 ft
800 à 1500m
200 à 500 ft
< 800m
< 200 ft
Symboles :   Orages  Brouillard  Fortes neiges  Fortes précipitations  Vent > 20 kt







- Altitude de l'aérodrome : 234 ft
- Code IATA : PBG


KPBG - Plattsburgh International

DERNIER METAR :
  • 240453Z AUTO VRB05KT 10SM CLR 17/12 A2963 RMK AO2 SLP033 T01720117 402170089

METARs EXPIRÉS :
  • 240353Z AUTO VRB06KT 10SM SCT065 17/12 A2964 RMK AO2 SLP037 T01720122
  • 240253Z AUTO VRB05KT 10SM FEW044 17/14 A2964 RMK AO2 SLP037 60003 T01670139 56008

TAF KPBG
Valide du 24 à 06h jusqu'au 25 à 06h UTC


240525Z 2406/2506 27008KT P6SM VCSH BKN050
FM240800 32009KT P6SM OVC025
FM240900 34012G18KT P6SM OVC016
FM241500 35013G19KT P6SM BKN028
FM242200 36008KT P6SM SCT070
FIR KZBW / Amérique du Nord



MET'MAP, la Météo Aéronautique d'un coup d'oeil ! - Copyright ORBIFLY Décembre 2007 - Disclaimer

ORBIFLY MET'MAP TEAM :

Programmation & Développement : Alexandra Zaïnal
Conception & Développement : Baudouin d'Aumeries
Co-Programmation & Développement : Marc-Olivier Méhu
Soutien technique & logistique : Manuel Goepfert

Contact : metmap@orbifly.com




SOURCES & CREDITS :

   NOAA